sensor_id;sensor_type;location;lat;lon;timestamp;P1;durP1;ratioP1;P2;durP2;ratioP2
35290;SDS011;21411;50.024;19.220;2023-07-29T11:26:56;1.50;;;1.40;;
35290;SDS011;21411;50.024;19.220;2023-07-29T11:29:23;1.60;;;1.50;;
35290;SDS011;21411;50.024;19.220;2023-07-29T11:31:51;2.40;;;2.20;;
35290;SDS011;21411;50.024;19.220;2023-07-29T11:34:17;2.00;;;1.80;;
35290;SDS011;21411;50.024;19.220;2023-07-29T11:36:47;2.10;;;1.60;;
35290;SDS011;21411;50.024;19.220;2023-07-29T11:39:13;1.70;;;1.60;;
35290;SDS011;21411;50.024;19.220;2023-07-29T11:41:42;2.20;;;2.00;;
35290;SDS011;21411;50.024;19.220;2023-07-29T11:44:16;2.10;;;1.90;;
35290;SDS011;21411;50.024;19.220;2023-07-29T11:46:43;1.90;;;1.80;;
35290;SDS011;21411;50.024;19.220;2023-07-29T11:49:10;2.00;;;1.80;;
35290;SDS011;21411;50.024;19.220;2023-07-29T11:51:36;2.00;;;1.80;;
35290;SDS011;21411;50.024;19.220;2023-07-29T11:54:03;1.90;;;1.70;;
35290;SDS011;21411;50.024;19.220;2023-07-29T11:56:29;2.00;;;1.30;;
35290;SDS011;21411;50.024;19.220;2023-07-29T11:58:57;2.00;;;1.70;;
35290;SDS011;21411;50.024;19.220;2023-07-29T12:01:23;1.20;;;1.10;;
35290;SDS011;21411;50.024;19.220;2023-07-29T12:03:50;2.30;;;1.80;;
35290;SDS011;21411;50.024;19.220;2023-07-29T12:06:17;1.70;;;1.60;;
35290;SDS011;21411;50.024;19.220;2023-07-29T12:08:44;1.40;;;1.30;;
35290;SDS011;21411;50.024;19.220;2023-07-29T12:11:10;1.50;;;1.40;;
35290;SDS011;21411;50.024;19.220;2023-07-29T12:13:37;1.40;;;1.30;;
35290;SDS011;21411;50.024;19.220;2023-07-29T12:16:03;1.70;;;1.60;;
35290;SDS011;21411;50.024;19.220;2023-07-29T12:18:31;1.20;;;1.20;;
35290;SDS011;21411;50.024;19.220;2023-07-29T12:20:59;2.10;;;1.90;;
35290;SDS011;21411;50.024;19.220;2023-07-29T12:23:26;1.60;;;1.50;;
35290;SDS011;21411;50.024;19.220;2023-07-29T12:25:58;1.30;;;1.20;;
35290;SDS011;21411;50.024;19.220;2023-07-29T12:28:25;2.10;;;1.50;;
35290;SDS011;21411;50.024;19.220;2023-07-29T12:30:56;2.50;;;1.60;;
35290;SDS011;21411;50.024;19.220;2023-07-29T12:36:22;1.90;;;1.50;;
35290;SDS011;21411;50.024;19.220;2023-07-29T12:38:48;2.00;;;1.20;;
35290;SDS011;21411;50.024;19.220;2023-07-29T12:41:14;1.50;;;1.10;;
35290;SDS011;21411;50.024;19.220;2023-07-29T12:43:41;1.40;;;1.30;;
35290;SDS011;21411;50.024;19.220;2023-07-29T12:46:08;1.10;;;1.10;;
35290;SDS011;21411;50.024;19.220;2023-07-29T12:48:34;2.00;;;1.50;;
35290;SDS011;21411;50.024;19.220;2023-07-29T12:51:01;1.60;;;1.50;;
35290;SDS011;21411;50.024;19.220;2023-07-29T12:53:27;1.50;;;1.40;;
35290;SDS011;21411;50.024;19.220;2023-07-29T12:55:54;1.60;;;1.50;;
35290;SDS011;21411;50.024;19.220;2023-07-29T12:58:20;1.20;;;1.00;;
35290;SDS011;21411;50.024;19.220;2023-07-29T13:00:47;1.50;;;1.40;;
35290;SDS011;21411;50.024;19.220;2023-07-29T13:03:14;1.40;;;1.30;;
35290;SDS011;21411;50.024;19.220;2023-07-29T13:05:40;1.30;;;1.20;;
35290;SDS011;21411;50.024;19.220;2023-07-29T13:08:07;2.60;;;1.50;;
35290;SDS011;21411;50.024;19.220;2023-07-29T13:10:33;1.80;;;1.70;;
35290;SDS011;21411;50.024;19.220;2023-07-29T13:13:00;2.60;;;1.70;;
35290;SDS011;21411;50.024;19.220;2023-07-29T13:15:26;2.30;;;1.70;;
35290;SDS011;21411;50.024;19.220;2023-07-29T13:17:53;4.60;;;4.30;;
35290;SDS011;21411;50.024;19.220;2023-07-29T13:20:19;2.60;;;2.20;;
35290;SDS011;21411;50.024;19.220;2023-07-29T13:22:46;2.00;;;1.80;;
35290;SDS011;21411;50.024;19.220;2023-07-29T13:25:12;2.00;;;1.80;;
35290;SDS011;21411;50.024;19.220;2023-07-29T13:27:39;2.50;;;2.00;;
35290;SDS011;21411;50.024;19.220;2023-07-29T13:30:06;1.80;;;1.60;;
35290;SDS011;21411;50.024;19.220;2023-07-29T13:32:33;2.00;;;1.60;;
35290;SDS011;21411;50.024;19.220;2023-07-29T13:35:00;1.50;;;1.40;;
35290;SDS011;21411;50.024;19.220;2023-07-29T13:37:26;1.70;;;1.60;;
35290;SDS011;21411;50.024;19.220;2023-07-29T13:39:53;2.00;;;1.80;;
35290;SDS011;21411;50.024;19.220;2023-07-29T13:42:19;2.20;;;1.50;;
35290;SDS011;21411;50.024;19.220;2023-07-29T13:44:46;1.10;;;1.10;;
35290;SDS011;21411;50.024;19.220;2023-07-29T13:47:12;2.30;;;1.10;;
35290;SDS011;21411;50.024;19.220;2023-07-29T13:49:39;1.80;;;1.30;;
35290;SDS011;21411;50.024;19.220;2023-07-29T13:52:05;2.10;;;1.60;;
35290;SDS011;21411;50.024;19.220;2023-07-29T13:54:32;1.50;;;1.40;;
35290;SDS011;21411;50.024;19.220;2023-07-29T13:56:58;3.10;;;1.70;;
35290;SDS011;21411;50.024;19.220;2023-07-29T13:59:25;1.90;;;1.80;;
35290;SDS011;21411;50.024;19.220;2023-07-29T14:01:51;1.90;;;1.80;;
35290;SDS011;21411;50.024;19.220;2023-07-29T14:04:17;2.40;;;1.60;;
35290;SDS011;21411;50.024;19.220;2023-07-29T14:06:44;1.70;;;1.60;;
35290;SDS011;21411;50.024;19.220;2023-07-29T14:09:11;2.00;;;1.90;;
35290;SDS011;21411;50.024;19.220;2023-07-29T14:11:38;1.70;;;1.60;;
35290;SDS011;21411;50.024;19.220;2023-07-29T14:14:05;1.70;;;1.60;;
35290;SDS011;21411;50.024;19.220;2023-07-29T14:16:31;1.70;;;1.60;;
35290;SDS011;21411;50.024;19.220;2023-07-29T14:18:58;3.20;;;1.70;;
35290;SDS011;21411;50.024;19.220;2023-07-29T14:21:24;1.60;;;1.50;;
35290;SDS011;21411;50.024;19.220;2023-07-29T14:23:51;2.00;;;1.90;;
35290;SDS011;21411;50.024;19.220;2023-07-29T14:26:17;2.10;;;1.90;;
35290;SDS011;21411;50.024;19.220;2023-07-29T14:28:44;2.10;;;2.00;;
35290;SDS011;21411;50.024;19.220;2023-07-29T14:31:10;2.10;;;1.90;;
35290;SDS011;21411;50.024;19.220;2023-07-29T14:33:37;2.00;;;1.80;;
35290;SDS011;21411;50.024;19.220;2023-07-29T14:36:03;2.00;;;1.90;;
35290;SDS011;21411;50.024;19.220;2023-07-29T14:38:30;1.80;;;1.60;;
35290;SDS011;21411;50.024;19.220;2023-07-29T14:40:56;2.00;;;1.80;;
35290;SDS011;21411;50.024;19.220;2023-07-29T14:43:23;2.90;;;1.90;;
35290;SDS011;21411;50.024;19.220;2023-07-29T14:45:49;1.80;;;1.70;;
35290;SDS011;21411;50.024;19.220;2023-07-29T14:48:16;1.50;;;1.40;;
35290;SDS011;21411;50.024;19.220;2023-07-29T14:50:43;1.60;;;1.50;;
35290;SDS011;21411;50.024;19.220;2023-07-29T14:53:10;2.90;;;2.00;;
35290;SDS011;21411;50.024;19.220;2023-07-29T14:55:37;1.40;;;1.30;;
35290;SDS011;21411;50.024;19.220;2023-07-29T14:58:04;1.60;;;1.50;;
35290;SDS011;21411;50.024;19.220;2023-07-29T15:00:30;2.40;;;1.70;;
35290;SDS011;21411;50.024;19.220;2023-07-29T15:02:57;1.70;;;1.40;;
35290;SDS011;21411;50.024;19.220;2023-07-29T15:05:23;1.60;;;1.50;;
35290;SDS011;21411;50.024;19.220;2023-07-29T15:07:50;5.10;;;2.80;;
35290;SDS011;21411;50.024;19.220;2023-07-29T15:10:17;2.20;;;2.00;;
35290;SDS011;21411;50.024;19.220;2023-07-29T15:12:44;1.70;;;1.60;;
35290;SDS011;21411;50.024;19.220;2023-07-29T15:15:11;1.40;;;1.30;;
35290;SDS011;21411;50.024;19.220;2023-07-29T15:17:38;1.60;;;1.40;;
35290;SDS011;21411;50.024;19.220;2023-07-29T15:20:05;1.70;;;1.40;;
35290;SDS011;21411;50.024;19.220;2023-07-29T15:22:31;1.50;;;1.40;;
35290;SDS011;21411;50.024;19.220;2023-07-29T15:24:58;1.30;;;1.20;;
35290;SDS011;21411;50.024;19.220;2023-07-29T15:27:28;1.60;;;1.50;;
35290;SDS011;21411;50.024;19.220;2023-07-29T15:29:55;2.20;;;1.70;;
35290;SDS011;21411;50.024;19.220;2023-07-29T15:32:22;1.30;;;1.20;;
35290;SDS011;21411;50.024;19.220;2023-07-29T15:34:49;1.90;;;1.60;;
35290;SDS011;21411;50.024;19.220;2023-07-29T15:37:15;1.40;;;1.30;;
35290;SDS011;21411;50.024;19.220;2023-07-29T15:39:42;2.00;;;1.50;;
35290;SDS011;21411;50.024;19.220;2023-07-29T15:42:08;1.60;;;1.50;;
35290;SDS011;21411;50.024;19.220;2023-07-29T15:44:35;2.10;;;1.60;;
35290;SDS011;21411;50.024;19.220;2023-07-29T15:47:03;1.40;;;1.30;;
35290;SDS011;21411;50.024;19.220;2023-07-29T15:49:30;1.60;;;1.50;;
35290;SDS011;21411;50.024;19.220;2023-07-29T15:51:56;1.60;;;1.50;;
35290;SDS011;21411;50.024;19.220;2023-07-29T15:54:23;2.30;;;1.60;;
35290;SDS011;21411;50.024;19.220;2023-07-29T15:56:49;1.70;;;1.60;;
35290;SDS011;21411;50.024;19.220;2023-07-29T15:59:16;1.80;;;1.70;;
35290;SDS011;21411;50.024;19.220;2023-07-29T16:01:42;4.60;;;1.50;;
35290;SDS011;21411;50.024;19.220;2023-07-29T16:04:09;1.70;;;1.60;;
35290;SDS011;21411;50.024;19.220;2023-07-29T16:06:35;2.00;;;1.80;;
35290;SDS011;21411;50.024;19.220;2023-07-29T16:09:04;2.10;;;1.80;;
35290;SDS011;21411;50.024;19.220;2023-07-29T16:11:33;1.90;;;1.60;;
35290;SDS011;21411;50.024;19.220;2023-07-29T16:13:59;1.80;;;1.70;;
35290;SDS011;21411;50.024;19.220;2023-07-29T16:16:27;1.80;;;1.70;;
35290;SDS011;21411;50.024;19.220;2023-07-29T16:18:54;1.70;;;1.60;;
35290;SDS011;21411;50.024;19.220;2023-07-29T16:21:21;1.70;;;1.40;;
35290;SDS011;21411;50.024;19.220;2023-07-29T16:23:47;2.00;;;1.90;;
35290;SDS011;21411;50.024;19.220;2023-07-29T16:26:19;2.30;;;2.20;;
35290;SDS011;21411;50.024;19.220;2023-07-29T16:28:46;2.30;;;2.10;;
35290;SDS011;21411;50.024;19.220;2023-07-29T16:31:14;3.20;;;2.10;;
35290;SDS011;21411;50.024;19.220;2023-07-29T16:33:41;2.30;;;2.10;;
35290;SDS011;21411;50.024;19.220;2023-07-29T16:36:07;2.60;;;2.40;;
35290;SDS011;21411;50.024;19.220;2023-07-29T16:38:34;2.90;;;2.70;;
35290;SDS011;21411;50.024;19.220;2023-07-29T16:41:00;2.60;;;2.40;;
35290;SDS011;21411;50.024;19.220;2023-07-29T16:43:27;2.80;;;2.60;;
35290;SDS011;21411;50.024;19.220;2023-07-29T16:45:53;3.10;;;2.80;;
35290;SDS011;21411;50.024;19.220;2023-07-29T16:48:19;2.10;;;2.00;;
35290;SDS011;21411;50.024;19.220;2023-07-29T16:50:46;2.20;;;2.10;;
35290;SDS011;21411;50.024;19.220;2023-07-29T16:53:12;3.30;;;2.40;;
35290;SDS011;21411;50.024;19.220;2023-07-29T16:55:39;4.70;;;2.00;;
35290;SDS011;21411;50.024;19.220;2023-07-29T16:58:07;2.60;;;2.10;;
35290;SDS011;21411;50.024;19.220;2023-07-29T17:00:34;2.70;;;1.90;;
35290;SDS011;21411;50.024;19.220;2023-07-29T17:03:00;2.90;;;2.30;;
35290;SDS011;21411;50.024;19.220;2023-07-29T17:05:27;2.50;;;2.00;;
35290;SDS011;21411;50.024;19.220;2023-07-29T17:07:53;2.50;;;2.30;;
35290;SDS011;21411;50.024;19.220;2023-07-29T17:10:20;3.10;;;2.90;;
35290;SDS011;21411;50.024;19.220;2023-07-29T17:12:46;3.80;;;3.40;;
35290;SDS011;21411;50.024;19.220;2023-07-29T17:15:13;3.50;;;3.00;;
35290;SDS011;21411;50.024;19.220;2023-07-29T17:17:39;3.30;;;3.00;;
35290;SDS011;21411;50.024;19.220;2023-07-29T17:20:06;4.10;;;3.00;;
35290;SDS011;21411;50.024;19.220;2023-07-29T17:22:33;3.90;;;3.20;;
35290;SDS011;21411;50.024;19.220;2023-07-29T17:25:02;4.60;;;3.20;;
35290;SDS011;21411;50.024;19.220;2023-07-29T17:27:29;3.40;;;3.10;;
35290;SDS011;21411;50.024;19.220;2023-07-29T17:29:56;3.30;;;2.70;;
35290;SDS011;21411;50.024;19.220;2023-07-29T17:32:22;4.00;;;3.20;;
35290;SDS011;21411;50.024;19.220;2023-07-29T17:34:49;3.40;;;3.10;;
35290;SDS011;21411;50.024;19.220;2023-07-29T17:37:15;3.70;;;3.00;;
35290;SDS011;21411;50.024;19.220;2023-07-29T17:39:42;2.70;;;2.10;;
35290;SDS011;21411;50.024;19.220;2023-07-29T17:42:09;2.20;;;1.70;;
35290;SDS011;21411;50.024;19.220;2023-07-29T17:44:36;1.50;;;1.20;;
35290;SDS011;21411;50.024;19.220;2023-07-29T17:47:02;1.40;;;1.20;;
35290;SDS011;21411;50.024;19.220;2023-07-29T17:49:29;2.70;;;1.50;;
35290;SDS011;21411;50.024;19.220;2023-07-29T17:51:55;2.50;;;1.10;;
35290;SDS011;21411;50.024;19.220;2023-07-29T17:54:22;1.30;;;1.20;;
35290;SDS011;21411;50.024;19.220;2023-07-29T17:56:48;2.60;;;1.20;;
35290;SDS011;21411;50.024;19.220;2023-07-29T17:59:15;2.20;;;1.20;;
35290;SDS011;21411;50.024;19.220;2023-07-29T18:01:41;1.20;;;1.00;;
35290;SDS011;21411;50.024;19.220;2023-07-29T18:04:08;2.60;;;2.10;;
35290;SDS011;21411;50.024;19.220;2023-07-29T18:06:35;1.70;;;1.40;;
35290;SDS011;21411;50.024;19.220;2023-07-29T18:09:01;3.10;;;1.30;;
35290;SDS011;21411;50.024;19.220;2023-07-29T18:11:28;2.20;;;1.20;;
35290;SDS011;21411;50.024;19.220;2023-07-29T18:13:55;2.00;;;1.30;;
35290;SDS011;21411;50.024;19.220;2023-07-29T18:16:21;1.20;;;1.10;;
35290;SDS011;21411;50.024;19.220;2023-07-29T18:18:49;2.70;;;1.20;;
35290;SDS011;21411;50.024;19.220;2023-07-29T18:21:16;2.10;;;1.40;;
35290;SDS011;21411;50.024;19.220;2023-07-29T18:23:42;2.10;;;1.00;;
35290;SDS011;21411;50.024;19.220;2023-07-29T18:26:09;1.60;;;1.00;;
35290;SDS011;21411;50.024;19.220;2023-07-29T18:28:35;2.20;;;1.10;;
35290;SDS011;21411;50.024;19.220;2023-07-29T18:31:02;3.80;;;1.70;;
35290;SDS011;21411;50.024;19.220;2023-07-29T18:33:28;2.60;;;1.40;;
35290;SDS011;21411;50.024;19.220;2023-07-29T18:35:55;3.00;;;2.00;;
35290;SDS011;21411;50.024;19.220;2023-07-29T18:38:22;4.70;;;2.90;;
35290;SDS011;21411;50.024;19.220;2023-07-29T18:40:49;2.30;;;2.00;;
35290;SDS011;21411;50.024;19.220;2023-07-29T18:43:15;2.80;;;1.20;;
35290;SDS011;21411;50.024;19.220;2023-07-29T18:45:42;1.70;;;1.30;;
35290;SDS011;21411;50.024;19.220;2023-07-29T18:48:08;2.90;;;1.20;;
35290;SDS011;21411;50.024;19.220;2023-07-29T18:50:35;1.40;;;1.30;;
35290;SDS011;21411;50.024;19.220;2023-07-29T18:53:01;1.90;;;1.40;;
35290;SDS011;21411;50.024;19.220;2023-07-29T18:55:28;1.50;;;1.30;;
35290;SDS011;21411;50.024;19.220;2023-07-29T18:57:57;2.90;;;1.80;;
35290;SDS011;21411;50.024;19.220;2023-07-29T19:00:24;1.30;;;1.20;;
35290;SDS011;21411;50.024;19.220;2023-07-29T19:02:50;1.40;;;1.20;;
35290;SDS011;21411;50.024;19.220;2023-07-29T19:05:17;1.90;;;1.40;;
35290;SDS011;21411;50.024;19.220;2023-07-29T19:07:43;2.20;;;1.60;;
35290;SDS011;21411;50.024;19.220;2023-07-29T19:10:11;2.20;;;1.20;;
35290;SDS011;21411;50.024;19.220;2023-07-29T19:12:37;2.80;;;1.40;;
35290;SDS011;21411;50.024;19.220;2023-07-29T19:15:05;1.90;;;1.40;;
35290;SDS011;21411;50.024;19.220;2023-07-29T19:17:33;3.60;;;2.10;;
35290;SDS011;21411;50.024;19.220;2023-07-29T19:20:01;2.20;;;1.90;;
35290;SDS011;21411;50.024;19.220;2023-07-29T19:22:29;2.70;;;2.10;;
35290;SDS011;21411;50.024;19.220;2023-07-29T19:24:56;3.60;;;1.90;;
35290;SDS011;21411;50.024;19.220;2023-07-29T19:27:22;2.70;;;1.80;;
35290;SDS011;21411;50.024;19.220;2023-07-29T19:29:49;2.60;;;2.30;;
35290;SDS011;21411;50.024;19.220;2023-07-29T19:32:15;3.80;;;2.50;;
35290;SDS011;21411;50.024;19.220;2023-07-29T19:34:42;2.30;;;2.10;;
35290;SDS011;21411;50.024;19.220;2023-07-29T19:37:11;3.50;;;2.40;;
35290;SDS011;21411;50.024;19.220;2023-07-29T19:39:39;2.30;;;2.10;;
35290;SDS011;21411;50.024;19.220;2023-07-29T19:42:06;5.30;;;2.20;;
35290;SDS011;21411;50.024;19.220;2023-07-29T19:44:32;3.20;;;2.30;;
35290;SDS011;21411;50.024;19.220;2023-07-29T19:47:00;2.90;;;2.30;;
35290;SDS011;21411;50.024;19.220;2023-07-29T19:49:27;3.40;;;1.80;;
35290;SDS011;21411;50.024;19.220;2023-07-29T19:51:53;2.70;;;2.30;;
35290;SDS011;21411;50.024;19.220;2023-07-29T19:54:27;2.80;;;2.40;;
35290;SDS011;21411;50.024;19.220;2023-07-29T19:56:54;4.00;;;2.40;;
35290;SDS011;21411;50.024;19.220;2023-07-29T19:59:20;2.30;;;1.80;;
35290;SDS011;21411;50.024;19.220;2023-07-29T20:01:47;2.70;;;2.40;;
35290;SDS011;21411;50.024;19.220;2023-07-29T20:04:13;2.30;;;2.10;;
35290;SDS011;21411;50.024;19.220;2023-07-29T20:06:40;2.40;;;1.90;;
35290;SDS011;21411;50.024;19.220;2023-07-29T20:09:06;2.50;;;1.90;;
35290;SDS011;21411;50.024;19.220;2023-07-29T20:11:33;2.90;;;2.10;;
35290;SDS011;21411;50.024;19.220;2023-07-29T20:13:59;2.60;;;2.00;;
35290;SDS011;21411;50.024;19.220;2023-07-29T20:16:26;3.00;;;2.00;;
35290;SDS011;21411;50.024;19.220;2023-07-29T20:18:54;3.00;;;2.70;;
35290;SDS011;21411;50.024;19.220;2023-07-29T20:21:20;2.30;;;2.10;;
35290;SDS011;21411;50.024;19.220;2023-07-29T20:23:47;3.10;;;2.10;;
35290;SDS011;21411;50.024;19.220;2023-07-29T20:26:15;2.50;;;1.90;;
35290;SDS011;21411;50.024;19.220;2023-07-29T20:28:42;2.70;;;1.90;;
35290;SDS011;21411;50.024;19.220;2023-07-29T20:31:08;2.80;;;1.70;;
35290;SDS011;21411;50.024;19.220;2023-07-29T20:33:35;1.60;;;1.50;;
35290;SDS011;21411;50.024;19.220;2023-07-29T20:36:01;1.90;;;1.70;;
35290;SDS011;21411;50.024;19.220;2023-07-29T20:38:28;1.90;;;1.70;;
35290;SDS011;21411;50.024;19.220;2023-07-29T20:40:55;2.30;;;2.10;;
35290;SDS011;21411;50.024;19.220;2023-07-29T20:43:23;2.40;;;1.80;;
35290;SDS011;21411;50.024;19.220;2023-07-29T20:45:50;2.10;;;1.90;;
35290;SDS011;21411;50.024;19.220;2023-07-29T20:48:20;1.50;;;1.40;;
35290;SDS011;21411;50.024;19.220;2023-07-29T20:50:46;5.80;;;2.10;;
35290;SDS011;21411;50.024;19.220;2023-07-29T20:53:13;2.90;;;1.50;;
35290;SDS011;21411;50.024;19.220;2023-07-29T20:55:39;1.90;;;1.70;;
35290;SDS011;21411;50.024;19.220;2023-07-29T20:58:08;2.30;;;1.40;;
35290;SDS011;21411;50.024;19.220;2023-07-29T21:00:34;2.10;;;1.40;;
35290;SDS011;21411;50.024;19.220;2023-07-29T21:03:02;1.60;;;1.50;;
35290;SDS011;21411;50.024;19.220;2023-07-29T21:05:32;1.70;;;1.60;;
35290;SDS011;21411;50.024;19.220;2023-07-29T21:08:00;2.50;;;1.60;;
35290;SDS011;21411;50.024;19.220;2023-07-29T21:10:26;2.10;;;1.80;;
35290;SDS011;21411;50.024;19.220;2023-07-29T21:12:53;2.50;;;1.80;;
35290;SDS011;21411;50.024;19.220;2023-07-29T21:15:21;2.60;;;1.50;;
35290;SDS011;21411;50.024;19.220;2023-07-29T21:17:47;1.70;;;1.60;;
35290;SDS011;21411;50.024;19.220;2023-07-29T21:20:14;2.50;;;1.70;;
35290;SDS011;21411;50.024;19.220;2023-07-29T21:22:40;2.60;;;1.50;;
35290;SDS011;21411;50.024;19.220;2023-07-29T21:25:07;1.50;;;1.40;;
35290;SDS011;21411;50.024;19.220;2023-07-29T21:27:34;1.80;;;1.50;;
35290;SDS011;21411;50.024;19.220;2023-07-29T21:30:00;3.90;;;1.90;;
35290;SDS011;21411;50.024;19.220;2023-07-29T21:32:27;3.40;;;1.90;;
35290;SDS011;21411;50.024;19.220;2023-07-29T21:34:53;1.50;;;1.40;;
35290;SDS011;21411;50.024;19.220;2023-07-29T21:37:20;3.10;;;1.90;;
35290;SDS011;21411;50.024;19.220;2023-07-29T21:39:47;2.10;;;1.90;;
35290;SDS011;21411;50.024;19.220;2023-07-29T21:42:13;2.00;;;1.80;;
35290;SDS011;21411;50.024;19.220;2023-07-29T21:44:40;2.40;;;1.80;;
35290;SDS011;21411;50.024;19.220;2023-07-29T21:47:07;1.70;;;1.60;;
35290;SDS011;21411;50.024;19.220;2023-07-29T21:49:33;2.10;;;1.80;;
35290;SDS011;21411;50.024;19.220;2023-07-29T21:52:00;3.50;;;1.70;;
35290;SDS011;21411;50.024;19.220;2023-07-29T21:54:26;3.10;;;1.80;;
35290;SDS011;21411;50.024;19.220;2023-07-29T21:56:53;2.10;;;1.90;;
35290;SDS011;21411;50.024;19.220;2023-07-29T21:59:19;2.70;;;1.50;;
35290;SDS011;21411;50.024;19.220;2023-07-29T22:01:46;2.50;;;1.60;;
35290;SDS011;21411;50.024;19.220;2023-07-29T22:04:12;2.40;;;1.90;;
35290;SDS011;21411;50.024;19.220;2023-07-29T22:06:39;2.00;;;1.80;;
35290;SDS011;21411;50.024;19.220;2023-07-29T22:09:05;3.20;;;2.20;;
35290;SDS011;21411;50.024;19.220;2023-07-29T22:11:32;2.90;;;2.10;;
35290;SDS011;21411;50.024;19.220;2023-07-29T22:13:58;2.40;;;1.90;;
35290;SDS011;21411;50.024;19.220;2023-07-29T22:16:25;2.10;;;2.00;;
35290;SDS011;21411;50.024;19.220;2023-07-29T22:18:51;2.30;;;2.10;;
35290;SDS011;21411;50.024;19.220;2023-07-29T22:21:18;2.60;;;1.90;;
35290;SDS011;21411;50.024;19.220;2023-07-29T22:23:44;2.30;;;1.70;;
35290;SDS011;21411;50.024;19.220;2023-07-29T22:26:11;1.80;;;1.70;;
35290;SDS011;21411;50.024;19.220;2023-07-29T22:28:38;2.90;;;2.50;;
35290;SDS011;21411;50.024;19.220;2023-07-29T22:31:04;2.60;;;2.30;;
35290;SDS011;21411;50.024;19.220;2023-07-29T22:33:32;3.10;;;2.50;;
35290;SDS011;21411;50.024;19.220;2023-07-29T22:35:59;2.30;;;2.10;;
35290;SDS011;21411;50.024;19.220;2023-07-29T22:38:27;2.20;;;2.00;;
35290;SDS011;21411;50.024;19.220;2023-07-29T22:40:54;3.30;;;1.90;;
35290;SDS011;21411;50.024;19.220;2023-07-29T22:43:21;2.70;;;2.20;;
35290;SDS011;21411;50.024;19.220;2023-07-29T22:45:52;2.50;;;2.00;;
35290;SDS011;21411;50.024;19.220;2023-07-29T22:48:24;2.40;;;2.20;;
35290;SDS011;21411;50.024;19.220;2023-07-29T22:50:56;2.20;;;2.00;;
35290;SDS011;21411;50.024;19.220;2023-07-29T22:53:23;2.20;;;2.00;;
35290;SDS011;21411;50.024;19.220;2023-07-29T22:55:50;2.10;;;1.90;;
35290;SDS011;21411;50.024;19.220;2023-07-29T22:58:17;3.50;;;2.00;;
35290;SDS011;21411;50.024;19.220;2023-07-29T23:00:48;1.90;;;1.80;;
35290;SDS011;21411;50.024;19.220;2023-07-29T23:03:16;2.60;;;2.10;;
35290;SDS011;21411;50.024;19.220;2023-07-29T23:05:43;2.20;;;2.00;;
35290;SDS011;21411;50.024;19.220;2023-07-29T23:08:09;2.30;;;1.80;;
35290;SDS011;21411;50.024;19.220;2023-07-29T23:10:36;2.00;;;1.70;;
35290;SDS011;21411;50.024;19.220;2023-07-29T23:13:03;1.70;;;1.60;;
35290;SDS011;21411;50.024;19.220;2023-07-29T23:15:34;4.00;;;1.90;;
35290;SDS011;21411;50.024;19.220;2023-07-29T23:18:01;2.80;;;1.70;;
35290;SDS011;21411;50.024;19.220;2023-07-29T23:20:30;1.90;;;1.70;;
35290;SDS011;21411;50.024;19.220;2023-07-29T23:22:59;2.20;;;2.00;;
35290;SDS011;21411;50.024;19.220;2023-07-29T23:25:30;1.60;;;1.50;;
35290;SDS011;21411;50.024;19.220;2023-07-29T23:27:57;2.10;;;1.90;;
35290;SDS011;21411;50.024;19.220;2023-07-29T23:30:23;2.30;;;1.90;;
35290;SDS011;21411;50.024;19.220;2023-07-29T23:32:50;2.50;;;2.10;;
35290;SDS011;21411;50.024;19.220;2023-07-29T23:35:17;2.50;;;2.30;;
35290;SDS011;21411;50.024;19.220;2023-07-29T23:37:43;2.50;;;1.80;;
35290;SDS011;21411;50.024;19.220;2023-07-29T23:40:10;2.40;;;2.20;;
35290;SDS011;21411;50.024;19.220;2023-07-29T23:42:37;3.60;;;2.10;;
35290;SDS011;21411;50.024;19.220;2023-07-29T23:45:04;2.60;;;1.70;;
35290;SDS011;21411;50.024;19.220;2023-07-29T23:47:31;2.80;;;2.10;;
35290;SDS011;21411;50.024;19.220;2023-07-29T23:49:57;5.40;;;2.40;;
35290;SDS011;21411;50.024;19.220;2023-07-29T23:52:24;4.80;;;2.10;;
35290;SDS011;21411;50.024;19.220;2023-07-29T23:54:50;3.10;;;2.10;;
35290;SDS011;21411;50.024;19.220;2023-07-29T23:57:17;2.80;;;2.00;;
35290;SDS011;21411;50.024;19.220;2023-07-29T23:59:43;3.30;;;2.20;;
